Time;durP1;ratioP1;P1;durP2;ratioP2;P2;SDS_P1;SDS_P2;PMS_P1;PMS_P2;Temp;Humidity;BMP_temperature;BMP_pressure;BME280_temperature;BME280_humidity;BME280_pressure;Samples;Min_cycle;Max_cycle;Signal;HPM_P1;HPM_P2
2023/03/02 00:02:16;;;;;;;;;40.67;35.67;;;;;4.21;49.55;102038.59;5117401;27;45611;-64
2023/03/02 00:04:57;;;;;;;;;43.00;36.33;;;;;4.18;49.67;102039.44;5097087;27;46732;-64
2023/03/02 00:07:30;;;;;;;;;44.67;38.00;;;;;4.14;49.88;102032.38;5105744;27;45453;-63
2023/03/02 00:09:56;;;;;;;;;47.00;35.67;;;;;4.10;50.02;102029.66;5117636;27;45487;-66
2023/03/02 00:12:21;;;;;;;;;45.67;35.33;;;;;4.09;49.97;102028.75;5117899;27;45500;-66
2023/03/02 00:14:47;;;;;;;;;40.00;37.00;;;;;4.09;49.76;102030.50;5117289;27;46620;-66
2023/03/02 00:17:12;;;;;;;;;42.00;37.00;;;;;3.99;49.89;102022.47;5117372;27;45327;-67
2023/03/02 00:19:37;;;;;;;;;42.50;36.50;;;;;3.98;50.27;102025.91;5117418;27;45456;-64
2023/03/02 00:22:03;;;;;;;;;41.67;35.00;;;;;3.95;50.19;102022.31;5120545;27;45226;-63
2023/03/02 00:24:29;;;;;;;;;30.00;30.00;;;;;3.91;50.32;102020.50;5121074;27;47019;-64
2023/03/02 00:26:54;;;;;;;;;48.00;39.33;;;;;3.91;50.51;102018.78;5120830;27;45434;-64
2023/03/02 00:29:20;;;;;;;;;34.67;29.33;;;;;3.89;50.01;102022.19;5121192;27;45415;-64
2023/03/02 00:31:45;;;;;;;;;41.67;31.00;;;;;3.83;50.39;102013.38;5121206;27;45269;-64
2023/03/02 00:34:10;;;;;;;;;42.33;33.67;;;;;3.80;50.36;102013.28;5120648;27;47480;-64
2023/03/02 00:36:36;;;;;;;;;38.00;31.33;;;;;3.81;50.03;102002.00;5121110;27;45235;-64
2023/03/02 00:39:03;;;;;;;;;38.67;34.33;;;;;3.66;49.95;101988.63;5120045;27;45306;-64
2023/03/02 00:41:28;;;;;;;;;35.67;30.33;;;;;3.71;50.55;102007.84;5121104;27;45335;-64
2023/03/02 00:43:55;;;;;;;;;37.00;29.33;;;;;3.59;50.54;101994.50;5120656;27;45558;-63
2023/03/02 00:46:23;;;;;;;;;35.67;30.67;;;;;3.65;50.85;102010.28;5120789;27;45507;-64
2023/03/02 00:48:49;;;;;;;;;39.33;32.33;;;;;3.65;50.58;102011.16;5120875;27;45305;-64
2023/03/02 00:51:15;;;;;;;;;44.00;33.67;;;;;3.57;50.69;101998.78;5120906;27;45224;-64
2023/03/02 00:53:41;;;;;;;;;39.67;33.33;;;;;3.61;50.60;102006.72;5119996;27;46417;-64
2023/03/02 00:56:07;;;;;;;;;41.00;35.33;;;;;3.50;50.83;101987.34;5120776;27;45454;-64
2023/03/02 00:58:33;;;;;;;;;45.00;36.67;;;;;3.33;50.75;101953.03;5120317;27;45319;-64
2023/03/02 01:01:08;;;;;;;;;28.33;21.67;;;;;3.60;51.01;101998.84;5120773;27;45387;-63
2023/03/02 01:03:33;;;;;;;;;36.67;29.67;;;;;3.52;50.77;101987.38;5120514;27;45698;-64
2023/03/02 01:05:59;;;;;;;;;33.00;25.67;;;;;3.48;50.71;101982.06;5120192;27;45319;-64
2023/03/02 01:08:25;;;;;;;;;27.67;27.00;;;;;3.55;50.56;101985.72;5120188;27;45346;-64
2023/03/02 01:10:51;;;;;;;;;38.67;33.67;;;;;3.46;50.53;101973.34;5120274;27;45548;-64
2023/03/02 01:13:17;;;;;;;;;45.33;32.00;;;;;3.52;50.43;101988.25;5119645;27;46987;-64
2023/03/02 01:15:43;;;;;;;;;33.00;29.00;;;;;3.52;51.12;101982.16;5120432;27;45441;-64
2023/03/02 01:18:08;;;;;;;;;32.67;28.67;;;;;3.53;50.62;101979.59;5120184;27;45188;-64
2023/03/02 01:20:34;;;;;;;;;32.33;28.00;;;;;3.47;50.84;101966.41;5120571;27;45429;-64
2023/03/02 01:22:59;;;;;;;;;36.00;31.33;;;;;3.41;50.42;101969.75;5120271;27;45316;-63
2023/03/02 01:25:24;;;;;;;;;35.33;30.67;;;;;3.41;50.94;101971.44;5120293;27;45174;-63
2023/03/02 01:27:50;;;;;;;;;36.67;30.67;;;;;3.43;50.85;101983.69;5120078;27;45387;-64
2023/03/02 01:30:15;;;;;;;;;32.33;29.33;;;;;3.43;50.93;101988.00;5120350;27;45535;-63
2023/03/02 01:32:41;;;;;;;;;28.67;26.00;;;;;3.40;51.03;101988.81;5119748;27;46512;-64
2023/03/02 01:35:06;;;;;;;;;39.67;27.33;;;;;3.31;51.18;101972.91;5120082;27;45265;-64
2023/03/02 01:37:32;;;;;;;;;39.00;33.33;;;;;3.32;51.20;101974.69;5119721;27;45362;-64
2023/03/02 01:39:57;;;;;;;;;35.67;31.67;;;;;3.26;51.34;101964.13;5120369;27;45256;-64
2023/03/02 01:42:23;;;;;;;;;35.67;21.33;;;;;3.29;51.29;101980.69;5120019;27;46462;-64
2023/03/02 01:44:56;;;;;;;;;38.00;29.00;;;;;3.27;51.25;101971.97;5119707;27;45299;-64
2023/03/02 01:47:30;;;;;;;;;26.67;25.33;;;;;3.25;51.57;101962.34;5120040;27;45290;-64
2023/03/02 01:49:59;;;;;;;;;33.00;26.00;;;;;3.24;51.59;101963.19;5119997;27;45314;-65
2023/03/02 01:52:26;;;;;;;;;39.33;30.33;;;;;3.27;51.38;101964.16;5119432;27;46283;-66
2023/03/02 01:54:56;;;;;;;;;36.33;28.00;;;;;3.29;51.37;101964.19;5119638;27;45455;-65
2023/03/02 01:57:29;;;;;;;;;35.33;28.00;;;;;3.25;51.36;101949.34;5119550;27;45417;-66
2023/03/02 02:00:00;;;;;;;;;36.33;31.00;;;;;3.26;51.40;101954.59;5120051;27;45283;-64
2023/03/02 02:02:25;;;;;;;;;44.00;30.00;;;;;3.28;51.21;101947.72;5119404;27;46079;-65
2023/03/02 02:04:53;;;;;;;;;37.00;27.67;;;;;3.25;51.57;101945.03;5119270;27;45290;-65
2023/03/02 02:07:18;;;;;;;;;42.33;30.00;;;;;3.04;51.35;101903.69;5119214;27;45502;-65
2023/03/02 02:09:50;;;;;;;;;27.33;24.00;;;;;3.24;51.35;101939.75;5119669;27;45440;-65
2023/03/02 02:12:19;;;;;;;;;26.33;25.67;;;;;3.29;51.31;101941.66;5119433;27;46641;-65
2023/03/02 02:14:45;;;;;;;;;39.33;28.67;;;;;3.27;51.04;101935.53;5119161;27;45362;-65
2023/03/02 02:17:12;;;;;;;;;32.67;28.33;;;;;3.22;51.52;101924.09;5119204;27;45522;-65
2023/03/02 02:20:05;;;;;;;;;32.00;25.67;;;;;3.28;51.46;101939.00;5119326;27;45371;-65
2023/03/02 02:22:51;;;;;;;;;31.67;25.33;;;;;3.26;51.36;101936.38;5118536;27;46018;-65
2023/03/02 02:25:48;;;;;;;;;30.67;27.33;;;;;3.27;51.64;101932.06;5098415;27;45221;-64
2023/03/02 02:28:20;;;;;;;;;32.33;25.00;;;;;3.19;51.47;101916.22;5055366;28;45449;-64
2023/03/02 02:30:50;;;;;;;;;33.33;23.67;;;;;3.16;51.42;101915.28;5055278;28;45323;-64
2023/03/02 02:33:20;;;;;;;;;24.33;22.00;;;;;3.23;51.35;101936.28;5055423;28;46381;-63
2023/03/02 02:35:47;;;;;;;;;25.00;23.33;;;;;3.19;51.71;101934.44;5055381;28;45451;-64
2023/03/02 02:38:17;;;;;;;;;38.33;26.00;;;;;3.20;51.68;101931.00;5055497;28;45457;-63
2023/03/02 02:40:55;;;;;;;;;24.33;21.67;;;;;3.13;51.75;101926.47;5055775;28;45352;-63
2023/03/02 02:43:22;;;;;;;;;26.33;23.67;;;;;3.13;51.43;101923.88;5054533;28;45297;-63
2023/03/02 02:45:52;;;;;;;;;28.67;24.00;;;;;3.10;51.63;101914.25;5055022;28;45477;-63
2023/03/02 02:48:21;;;;;;;;;31.33;28.00;;;;;3.10;51.87;101929.88;5055631;28;45270;-64
2023/03/02 02:50:47;;;;;;;;;26.67;24.33;;;;;3.10;51.95;101929.88;5055436;28;45502;-63
2023/03/02 02:53:24;;;;;;;;;31.67;25.00;;;;;3.03;52.11;101920.13;5054915;28;47326;-63
2023/03/02 02:55:53;;;;;;;;;32.00;28.33;;;;;3.09;51.91;101938.53;5054841;28;45349;-63
2023/03/02 02:58:44;;;;;;;;;22.67;17.33;;;;;3.07;52.16;101939.31;5054569;28;45345;-63
2023/03/02 03:01:15;;;;;;;;;32.33;28.33;;;;;3.00;52.18;101935.66;5055329;28;45484;-63
2023/03/02 03:03:50;;;;;;;;;33.33;24.00;;;;;2.99;52.57;101928.69;5063044;27;45772;-63
2023/03/02 03:06:18;;;;;;;;;25.00;24.33;;;;;2.91;52.51;101923.28;5118252;27;45291;-64
2023/03/02 03:08:44;;;;;;;;;24.00;24.00;;;;;2.97;52.40;101930.38;5118854;27;45359;-64
2023/03/02 03:11:12;;;;;;;;;31.33;28.00;;;;;2.95;52.59;101930.34;5118730;27;45487;-64
2023/03/02 03:13:38;;;;;;;;;27.67;25.00;;;;;2.89;52.08;101914.56;5118317;27;45318;-64
2023/03/02 03:16:07;;;;;;;;;30.00;24.33;;;;;2.94;52.52;101920.75;5118647;27;45409;-63
2023/03/02 03:18:32;;;;;;;;;29.33;22.33;;;;;2.81;52.61;101899.59;5118245;27;45374;-63
2023/03/02 03:20:58;;;;;;;;;33.00;27.33;;;;;2.85;52.58;101906.66;5118784;27;45373;-63
2023/03/02 03:23:23;;;;;;;;;30.33;23.67;;;;;2.90;52.52;101918.91;5118340;27;46636;-64
2023/03/02 03:25:49;;;;;;;;;26.33;26.33;;;;;2.88;52.53;101909.31;5118117;27;45402;-63
2023/03/02 03:28:14;;;;;;;;;31.33;27.67;;;;;2.88;52.68;101917.13;5118375;27;45287;-64
2023/03/02 03:30:40;;;;;;;;;24.67;23.33;;;;;2.86;52.95;101918.78;5118530;27;45576;-65
2023/03/02 03:33:09;;;;;;;;;32.67;24.67;;;;;2.81;52.71;101928.19;5118387;27;45610;-64
2023/03/02 03:35:38;;;;;;;;;39.67;28.33;;;;;2.58;52.92;101876.41;5118291;27;45295;-65
2023/03/02 03:38:06;;;;;;;;;32.33;24.00;;;;;2.81;52.88;101913.47;5118062;27;45411;-65
2023/03/02 03:40:35;;;;;;;;;29.00;24.67;;;;;2.82;52.49;101909.13;5118214;27;45478;-65
2023/03/02 03:43:01;;;;;;;;;28.67;22.67;;;;;2.88;52.82;101925.81;5118013;27;45291;-65
2023/03/02 03:45:27;;;;;;;;;29.33;26.67;;;;;2.85;53.13;101928.31;5118125;27;45598;-65
2023/03/02 03:47:52;;;;;;;;;30.00;27.67;;;;;2.74;53.06;101917.59;5117950;27;45328;-64
2023/03/02 03:50:18;;;;;;;;;27.33;25.33;;;;;2.77;53.26;101925.50;5118312;27;45394;-65
2023/03/02 03:52:43;;;;;;;;;24.33;21.67;;;;;2.82;53.25;101922.13;5118055;27;46047;-64
2023/03/02 03:55:09;;;;;;;;;30.67;24.67;;;;;2.79;53.30;101921.22;5117713;27;45448;-64
2023/03/02 03:57:35;;;;;;;;;41.33;29.00;;;;;2.66;53.63;101905.22;5121702;27;45354;-64
2023/03/02 04:00:00;;;;;;;;;31.00;25.33;;;;;2.69;52.88;101914.00;5121853;27;45461;-65
2023/03/02 04:02:26;;;;;;;;;28.00;23.67;;;;;2.64;53.68;101901.69;5121007;27;46303;-64
2023/03/02 04:04:51;;;;;;;;;33.67;28.00;;;;;2.75;53.37;101929.78;5121573;27;45301;-65
2023/03/02 04:07:18;;;;;;;;;30.00;25.00;;;;;2.71;53.37;101922.72;5121430;27;45217;-65
2023/03/02 04:09:43;;;;;;;;;31.33;27.00;;;;;2.64;53.51;101906.91;5121358;27;45449;-65
2023/03/02 04:12:10;;;;;;;;;30.00;27.33;;;;;2.64;53.42;101907.78;5121404;27;46460;-65
2023/03/02 04:14:35;;;;;;;;;33.33;25.67;;;;;2.69;53.57;101918.34;5121057;27;45459;-65
2023/03/02 04:17:04;;;;;;;;;41.67;28.67;;;;;2.38;54.03;101876.72;5121456;27;45334;-65
2023/03/02 04:19:29;;;;;;;;;33.67;30.67;;;;;2.63;53.83;101911.22;5121435;27;45357;-65
2023/03/02 04:21:55;;;;;;;;;39.33;28.00;;;;;2.38;53.90;101865.44;5120917;27;47442;-65
2023/03/02 04:24:22;;;;;;;;;37.67;27.00;;;;;2.65;53.97;101909.53;5120890;27;45351;-65
2023/03/02 04:26:48;;;;;;;;;36.33;23.33;;;;;2.68;54.31;101920.03;5121038;27;45186;-65
2023/03/02 04:29:16;;;;;;;;;36.67;31.67;;;;;2.68;54.31;101919.16;5121244;27;45248;-65
2023/03/02 04:31:42;;;;;;;;;28.00;25.33;;;;;2.68;54.39;101930.44;5120901;27;46238;-65
2023/03/02 04:34:08;;;;;;;;;35.00;29.00;;;;;2.61;54.24;101916.38;5120956;27;45306;-65
2023/03/02 04:36:37;;;;;;;;;29.67;25.00;;;;;2.65;53.98;101921.69;5121131;27;45317;-65
2023/03/02 04:39:04;;;;;;;;;29.33;27.00;;;;;2.65;54.30;101926.88;5120544;27;45257;-65
2023/03/02 04:41:30;;;;;;;;;37.33;31.00;;;;;2.61;54.65;101919.00;5120760;27;45366;-65
2023/03/02 04:43:55;;;;;;;;;35.33;29.67;;;;;2.52;54.76;101910.03;5120759;27;45397;-65
2023/03/02 04:46:25;;;;;;;;;38.00;31.67;;;;;2.63;54.70;101933.72;5120923;27;45249;-66
2023/03/02 04:48:51;;;;;;;;;35.67;31.67;;;;;2.56;55.15;101922.28;5121051;27;45545;-67
2023/03/02 04:51:30;;;;;;;;;34.33;31.67;;;;;2.56;54.81;101924.88;5120433;27;46259;-64
2023/03/02 04:54:01;;;;;;;;;29.67;28.33;;;;;2.58;54.79;101924.06;5120306;27;45344;-64
2023/03/02 04:56:26;;;;;;;;;32.67;25.00;;;;;2.54;54.44;101918.75;5120742;27;45452;-64
2023/03/02 04:58:52;;;;;;;;;37.33;31.67;;;;;2.59;54.98;101930.19;5120757;27;45236;-65
2023/03/02 05:01:19;;;;;;;;;36.00;30.67;;;;;2.58;55.04;101933.59;5120489;27;46439;-65
2023/03/02 05:03:45;;;;;;;;;34.00;29.00;;;;;2.55;54.92;101939.59;5120778;27;45351;-65
2023/03/02 05:06:10;;;;;;;;;34.33;29.00;;;;;2.46;54.93;101926.31;5120100;27;45231;-65
2023/03/02 05:08:36;;;;;;;;;37.67;31.00;;;;;2.44;55.08;101928.88;5120296;27;45462;-65
2023/03/02 05:11:03;;;;;;;;;41.67;33.00;;;;;2.44;55.27;101939.28;5120112;27;46491;-65
2023/03/02 05:13:29;;;;;;;;;38.67;36.33;;;;;2.41;55.37;101947.00;5120240;27;45262;-64
2023/03/02 05:15:56;;;;;;;;;33.67;30.33;;;;;2.40;55.53;101952.16;5120075;27;45323;-64
2023/03/02 05:18:23;;;;;;;;;44.00;38.33;;;;;2.29;55.90;101933.59;5120453;27;45351;-65
2023/03/02 05:20:49;;;;;;;;;39.67;33.00;;;;;2.30;55.58;101935.38;5120104;27;45395;-64
2023/03/02 05:23:27;;;;;;;;;47.67;36.00;;;;;2.31;56.38;101942.34;5120293;27;45285;-65
2023/03/02 05:25:54;;;;;;;;;38.67;34.33;;;;;2.29;56.24;101940.53;5120352;27;45342;-65
2023/03/02 05:28:21;;;;;;;;;29.00;26.67;;;;;2.28;56.06;101937.06;5119797;27;45403;-66
2023/03/02 05:30:47;;;;;;;;;33.33;28.00;;;;;2.26;56.34;101936.13;5099311;27;47298;-66
2023/03/02 05:33:13;;;;;;;;;38.33;33.00;;;;;2.13;56.13;101918.41;5099402;27;45310;-65
2023/03/02 05:35:38;;;;;;;;;46.33;37.33;;;;;2.21;56.26;101941.19;5099597;27;45424;-65
2023/03/02 05:38:04;;;;;;;;;33.33;28.67;;;;;2.19;56.54;101944.56;5099650;27;45208;-66
2023/03/02 05:40:30;;;;;;;;;31.00;24.67;;;;;2.22;56.51;101949.84;5099329;27;46353;-66
2023/03/02 05:42:55;;;;;;;;;38.33;31.33;;;;;2.17;56.28;101943.66;5099455;27;45335;-65
2023/03/02 05:45:27;;;;;;;;;27.33;25.33;;;;;2.17;56.65;101946.25;5119521;27;45474;-65
2023/03/02 05:47:53;;;;;;;;;37.67;36.00;;;;;2.16;56.87;101955.72;5120189;27;45445;-65
2023/03/02 05:50:20;;;;;;;;;36.00;31.00;;;;;2.14;56.92;101956.53;5119659;27;46337;-65
2023/03/02 05:52:45;;;;;;;;;30.67;27.67;;;;;2.03;57.04;101956.19;5119767;27;45223;-65
2023/03/02 05:55:12;;;;;;;;;36.00;32.00;;;;;1.98;56.63;101940.47;5119866;27;45291;-65
2023/03/02 05:57:38;;;;;;;;;34.33;27.33;;;;;2.08;56.91;101954.63;5119514;27;45703;-66
2023/03/02 06:00:04;;;;;;;;;34.00;28.33;;;;;2.04;56.86;101948.44;5118996;27;46092;-66
2023/03/02 06:02:30;;;;;;;;;34.00;31.33;;;;;1.63;57.00;101877.91;5119149;27;45426;-65
2023/03/02 06:04:55;;;;;;;;;34.67;29.33;;;;;2.08;56.69;101965.88;5119345;27;45352;-65
2023/03/02 06:07:21;;;;;;;;;40.00;31.00;;;;;2.06;56.33;101957.19;5119309;27;45484;-64
2023/03/02 06:09:46;;;;;;;;;33.33;26.67;;;;;2.09;56.80;101956.38;5119055;27;46054;-64
2023/03/02 06:12:11;;;;;;;;;39.67;28.00;;;;;2.10;56.85;101947.75;5118938;27;45280;-64
2023/03/02 06:14:36;;;;;;;;;38.00;27.00;;;;;1.96;56.63;101931.75;5119325;27;45317;-65
2023/03/02 06:17:02;;;;;;;;;34.00;29.67;;;;;2.05;56.64;101945.00;5119644;27;45499;-65
2023/03/02 06:19:27;;;;;;;;;42.67;31.67;;;;;1.97;57.03;101930.03;5118253;27;45417;-64
2023/03/02 06:21:53;;;;;;;;;42.00;29.33;;;;;2.07;56.91;101945.06;5119291;27;45266;-65
2023/03/02 06:24:18;;;;;;;;;36.33;30.33;;;;;1.96;57.04;101923.97;5119415;27;45406;-65
2023/03/02 06:26:44;;;;;;;;;34.33;26.33;;;;;2.09;57.00;101951.19;5119061;27;45212;-64
2023/03/02 06:29:09;;;;;;;;;33.33;30.33;;;;;2.12;56.42;101950.41;5118839;27;46857;-65
2023/03/02 06:31:35;;;;;;;;;34.33;32.00;;;;;2.04;56.87;101935.44;5119069;27;45450;-64
2023/03/02 06:34:00;;;;;;;;;32.00;24.33;;;;;2.18;56.10;101946.28;5118848;27;45522;-64
2023/03/02 06:36:27;;;;;;;;;31.33;31.00;;;;;2.19;56.60;101957.56;5119430;27;45291;-64
2023/03/02 06:38:53;;;;;;;;;27.67;25.33;;;;;2.19;56.62;101952.34;5118723;27;46692;-63
2023/03/02 06:41:19;;;;;;;;;31.00;28.33;;;;;2.19;56.50;101948.06;5102104;27;45546;-63
2023/03/02 06:43:45;;;;;;;;;33.00;28.00;;;;;2.17;56.14;101946.25;5118432;27;45469;-63
2023/03/02 06:46:11;;;;;;;;;27.67;22.67;;;;;2.16;56.41;101953.13;5119014;27;45306;-63
2023/03/02 06:48:36;;;;;;;;;31.33;29.33;;;;;2.18;56.77;101956.69;5118825;27;46389;-63
2023/03/02 06:51:02;;;;;;;;;35.33;25.00;;;;;2.20;56.43;101961.91;5118545;27;45302;-63
2023/03/02 06:53:27;;;;;;;;;39.67;29.33;;;;;2.11;56.46;101949.53;5117758;27;45507;-63
2023/03/02 06:55:52;;;;;;;;;27.00;24.00;;;;;2.17;56.26;101962.69;5119190;27;45207;-64
2023/03/02 06:58:18;;;;;;;;;27.67;24.67;;;;;2.24;56.80;101971.59;5115013;27;45553;-64
2023/03/02 07:00:43;;;;;;;;;38.33;28.00;;;;;2.24;56.75;101967.25;5118553;27;45292;-64
2023/03/02 07:03:09;;;;;;;;;24.00;21.33;;;;;2.21;56.20;101959.38;5118875;27;45465;-63
2023/03/02 07:05:35;;;;;;;;;33.33;31.00;;;;;2.15;56.59;101955.69;5118810;27;45188;-63
2023/03/02 07:08:01;;;;;;;;;31.67;25.00;;;;;2.24;56.75;101972.44;5118392;27;47319;-64
2023/03/02 07:10:27;;;;;;;;;29.00;27.33;;;;;2.27;56.77;101950.88;5118508;27;45208;-63
2023/03/02 07:12:52;;;;;;;;;32.67;30.67;;;;;2.42;56.79;101963.47;5118473;27;45413;-64
2023/03/02 07:15:18;;;;;;;;;32.00;25.33;;;;;2.50;56.46;101959.38;5118751;27;45484;-64
2023/03/02 07:17:44;;;;;;;;;37.33;30.67;;;;;3.03;55.43;101979.97;5118515;27;46539;-63
2023/03/02 07:20:15;;;;;;;;;32.33;28.33;;;;;3.00;55.13;101969.47;5118250;27;45693;-63
2023/03/02 07:22:42;;;;;;;;;31.67;30.67;;;;;2.70;55.31;101920.06;5118708;27;46328;-63
2023/03/02 07:25:08;;;;;;;;;32.50;27.00;;;;;2.90;55.53;101964.84;5118724;27;45250;-64
2023/03/02 07:27:34;;;;;;;;;29.00;26.33;;;;;2.86;55.18;101966.50;5118302;27;46134;-64
2023/03/02 07:29:59;;;;;;;;;32.67;26.00;;;;;2.86;55.63;101969.09;5117739;27;45300;-63
2023/03/02 07:32:25;;;;;;;;;30.67;20.00;;;;;2.91;55.28;101966.63;5119759;27;45480;-61
2023/03/02 07:34:50;;;;;;;;;34.00;30.33;;;;;2.86;55.49;101953.50;5120828;27;45320;-63
2023/03/02 07:37:15;;;;;;;;;42.67;33.67;;;;;2.87;55.92;101962.19;5121824;27;45589;-63
2023/03/02 07:39:41;;;;;;;;;37.33;35.00;;;;;2.90;56.25;101964.84;5121628;27;45355;-64
2023/03/02 07:42:07;;;;;;;;;38.33;33.00;;;;;2.89;56.15;101964.00;5122079;27;45566;-66
2023/03/02 07:44:33;;;;;;;;;33.00;31.67;;;;;2.90;55.78;101957.94;5122105;27;45181;-65
2023/03/02 07:46:59;;;;;;;;;29.33;27.00;;;;;2.92;55.68;101956.28;5121497;27;46318;-65
2023/03/02 07:49:24;;;;;;;;;36.67;33.33;;;;;3.04;55.69;101973.06;5121710;27;45248;-65
2023/03/02 07:51:49;;;;;;;;;39.67;33.00;;;;;3.01;55.86;101968.66;5121637;27;45336;-65
2023/03/02 07:54:15;;;;;;;;;42.67;35.00;;;;;3.13;55.52;101968.09;5121658;27;45250;-66
2023/03/02 07:56:40;;;;;;;;;39.67;35.00;;;;;3.78;54.82;101957.66;5121441;27;46889;-64
2023/03/02 07:59:05;;;;;;;;;32.67;28.00;;;;;4.50;53.74;101973.22;5121455;27;45373;-64
2023/03/02 08:01:31;;;;;;;;;39.67;33.00;;;;;5.07;52.27;101966.59;5121160;27;45150;-65
2023/03/02 08:03:56;;;;;;;;;33.33;26.67;;;;;5.34;51.76;101965.34;5121983;27;45363;-66
2023/03/02 08:06:21;;;;;;;;;47.33;36.00;;;;;6.63;49.82;101958.69;5120479;27;46516;-66
2023/03/02 08:08:47;;;;;;;;;38.33;32.67;;;;;7.05;48.21;101953.97;5121456;27;45424;-65
2023/03/02 08:11:15;;;;;;;;;40.33;35.33;;;;;6.51;48.48;101964.66;5121504;27;45671;-65
2023/03/02 08:13:41;;;;;;;;;32.33;31.00;;;;;7.16;48.43;101973.31;5121109;27;45514;-65
2023/03/02 08:16:08;;;;;;;;;41.00;31.67;;;;;9.41;44.43;101961.66;5121025;27;46108;-64
2023/03/02 08:18:35;;;;;;;;;47.67;37.00;;;;;10.16;42.30;101943.25;5121168;27;45231;-65
2023/03/02 08:21:00;;;;;;;;;50.33;34.00;;;;;10.14;41.56;101952.88;5121240;27;45256;-65
2023/03/02 08:23:26;;;;;;;;;41.00;35.67;;;;;9.80;41.89;101966.94;5121214;27;45450;-65
2023/03/02 08:25:52;;;;;;;;;39.00;34.00;;;;;9.03;43.82;101957.22;5120923;27;45599;-65
2023/03/02 08:28:19;;;;;;;;;35.67;31.00;;;;;9.38;43.67;101956.41;5121081;27;45459;-65
2023/03/02 08:30:44;;;;;;;;;36.33;30.00;;;;;9.63;42.37;101972.22;5121011;27;45489;-65
2023/03/02 08:33:10;;;;;;;;;45.00;33.33;;;;;11.00;40.35;101952.66;5120833;27;45316;-65
2023/03/02 08:35:35;;;;;;;;;38.33;33.33;;;;;13.08;38.48;101973.66;5120316;27;45429;-64
2023/03/02 08:38:00;;;;;;;;;35.33;31.00;;;;;13.72;38.01;101947.16;5120538;27;45520;-65
2023/03/02 08:40:26;;;;;;;;;30.67;29.00;;;;;13.38;35.78;101960.94;5121241;27;45311;-64
2023/03/02 08:42:56;;;;;;;;;35.33;32.67;;;;;11.95;37.18;101967.00;5120409;27;45400;-64
2023/03/02 08:45:22;;;;;;;;;38.00;31.33;;;;;10.76;38.98;101964.16;5120559;27;45446;-64
2023/03/02 08:47:48;;;;;;;;;46.33;32.67;;;;;10.76;40.74;101969.44;5120830;27;45374;-64
2023/03/02 08:50:13;;;;;;;;;41.67;32.00;;;;;11.45;39.53;101958.53;5120796;27;45391;-65
2023/03/02 08:52:39;;;;;;;;;36.00;33.00;;;;;12.15;38.09;101961.50;5121046;27;45432;-65
2023/03/02 08:55:05;;;;;;;;;42.67;34.00;;;;;12.46;39.43;101952.38;5120522;27;46325;-65
2023/03/02 08:57:30;;;;;;;;;45.67;32.00;;;;;12.60;37.82;101944.31;5120530;27;46208;-65
2023/03/02 08:59:56;;;;;;;;;41.33;31.00;;;;;12.05;37.61;101943.13;5120758;27;45314;-66
2023/03/02 09:02:21;;;;;;;;;37.33;32.67;;;;;12.01;37.73;101945.81;5120723;27;45309;-65
2023/03/02 09:04:46;;;;;;;;;45.67;34.00;;;;;11.91;38.45;101948.50;5120559;27;46056;-66
2023/03/02 09:07:16;;;;;;;;;41.33;34.67;;;;;11.15;38.99;101914.78;5120329;27;45413;-66
2023/03/02 09:09:41;;;;;;;;;34.00;30.33;;;;;10.93;39.19;101943.03;5120775;27;45321;-66
2023/03/02 09:12:06;;;;;;;;;36.00;32.67;;;;;10.39;40.85;101952.00;5120700;27;45467;-66
2023/03/02 09:14:32;;;;;;;;;41.33;36.00;;;;;9.71;40.32;101938.88;5119609;27;45592;-66
2023/03/02 09:16:57;;;;;;;;;38.00;31.33;;;;;9.41;41.98;101953.78;5120099;27;45365;-65
2023/03/02 09:19:22;;;;;;;;;45.67;35.00;;;;;9.14;41.83;101912.56;5120121;27;45349;-66
2023/03/02 09:21:48;;;;;;;;;30.33;30.33;;;;;9.23;42.23;101949.34;5120490;27;45372;-65
2023/03/02 09:24:14;;;;;;;;;38.33;33.00;;;;;9.13;42.30;101955.47;5120193;27;47437;-65
2023/03/02 09:26:39;;;;;;;;;44.67;35.33;;;;;9.15;41.77;101951.09;5118998;27;45392;-65
2023/03/02 09:29:05;;;;;;;;;41.00;32.67;;;;;9.30;42.29;101944.13;5120215;27;45457;-65
2023/03/02 09:31:32;;;;;;;;;47.67;35.33;;;;;9.57;41.80;101944.16;5121612;27;45452;-65
2023/03/02 09:33:57;;;;;;;;;42.00;34.33;;;;;10.25;40.77;101956.38;5119164;27;46253;-65
2023/03/02 09:36:25;;;;;;;;;29.67;28.33;;;;;10.68;41.06;101953.69;5119713;27;45515;-66
2023/03/02 09:38:51;;;;;;;;;37.33;33.67;;;;;10.48;40.30;101934.44;5119635;27;45442;-66
2023/03/02 09:41:19;;;;;;;;;44.33;34.33;;;;;10.42;40.79;101937.97;5119596;27;45493;-65
2023/03/02 09:44:08;;;;;;;;;48.33;32.33;;;;;10.11;40.80;101944.13;5119698;27;45296;-64
2023/03/02 09:46:47;;;;;;;;;41.67;33.00;;;;;9.99;41.12;101935.38;5119747;27;45338;-65
2023/03/02 09:49:33;;;;;;;;;40.00;34.00;;;;;10.27;41.12;101936.22;5119749;27;45242;-63
2023/03/02 09:52:13;;;;;;;;;42.33;34.00;;;;;10.37;39.80;101942.34;5119994;27;45305;-64
2023/03/02 09:54:39;;;;;;;;;46.67;36.00;;;;;10.45;40.34;101940.59;5119614;27;46539;-66
2023/03/02 09:57:20;;;;;;;;;42.67;36.00;;;;;10.79;40.13;101936.06;5119684;27;45355;-66
2023/03/02 09:59:52;;;;;;;;;42.33;33.67;;;;;10.59;40.66;101936.16;5112444;27;45371;-63
2023/03/02 10:02:18;;;;;;;;;44.00;34.67;;;;;10.25;40.08;101936.22;5119285;27;45488;-63
2023/03/02 10:04:50;;;;;;;;;44.00;36.33;;;;;10.36;40.52;101927.44;5119418;27;46257;-64
2023/03/02 10:07:23;;;;;;;;;39.00;32.00;;;;;10.85;40.31;101931.63;5119490;27;45358;-64
2023/03/02 10:09:49;;;;;;;;;38.67;31.00;;;;;10.87;39.75;101917.59;5119651;27;45297;-64
2023/03/02 10:12:41;;;;;;;;;44.67;35.00;;;;;11.49;40.13;101933.88;5119372;27;45196;-64
2023/03/02 10:15:21;;;;;;;;;37.33;34.00;;;;;12.58;39.27;101933.75;5119107;27;47613;-64
2023/03/02 10:18:12;;;;;;;;;39.33;33.00;;;;;14.37;36.87;101935.41;5118783;27;45303;-64
2023/03/02 10:20:57;;;;;;;;;44.67;37.00;;;;;15.90;33.92;101927.59;5119308;27;45414;-63
2023/03/02 10:23:28;;;;;;;;;39.67;33.33;;;;;16.92;34.51;101926.53;5118975;27;45545;-65
2023/03/02 10:26:19;;;;;;;;;38.67;33.00;;;;;17.81;31.42;101922.81;5119260;27;46821;-65
2023/03/02 10:28:56;;;;;;;;;38.67;32.00;;;;;18.07;30.07;101917.47;5119139;27;45354;-65
2023/03/02 10:31:26;;;;;;;;;37.67;33.67;;;;;18.38;30.60;101924.34;5119160;27;45306;-65
2023/03/02 10:33:51;;;;;;;;;44.00;35.00;;;;;18.47;29.02;101911.63;5119183;27;45312;-64
2023/03/02 10:36:25;;;;;;;;;38.67;32.67;;;;;18.58;29.02;101912.09;5119129;27;45310;-63
2023/03/02 10:38:52;;;;;;;;;39.33;34.33;;;;;18.40;29.07;101898.53;5118956;27;45389;-63
2023/03/02 10:41:24;;;;;;;;;33.00;28.50;;;;;17.85;29.10;101917.31;5118439;27;45311;-63
2023/03/02 10:44:06;;;;;;;;;38.33;31.67;;;;;16.98;31.27;101911.28;5119252;27;45474;-64
2023/03/02 10:46:43;;;;;;;;;35.33;32.00;;;;;16.35;30.36;101910.44;5118758;27;46147;-64
2023/03/02 10:49:27;;;;;;;;;43.00;36.00;;;;;15.81;31.76;101919.84;5118827;27;45378;-63
2023/03/02 10:52:16;;;;;;;;;43.67;36.00;;;;;15.01;31.68;101884.63;5118760;27;45299;-63
2023/03/02 10:54:42;;;;;;;;;39.67;35.00;;;;;14.59;32.54;101894.31;5075492;28;45344;-63
2023/03/02 10:57:37;;;;;;;;;35.67;32.67;;;;;14.15;33.27;101914.63;5075103;28;46035;-63
2023/03/02 11:00:11;;;;;;;;;39.67;32.33;;;;;13.56;33.11;101902.44;5014209;28;45371;-64
2023/03/02 11:02:36;;;;;;;;;36.00;31.33;;;;;13.21;34.55;101924.13;5015039;28;45412;-63
2023/03/02 11:05:22;;;;;;;;;38.33;32.33;;;;;12.73;34.13;101916.84;5014777;28;45616;-63
2023/03/02 11:07:57;;;;;;;;;39.33;32.67;;;;;12.37;34.91;101900.53;5014916;28;46412;-64
2023/03/02 11:10:29;;;;;;;;;39.33;31.00;;;;;12.04;35.51;101902.69;5014715;28;45309;-63
2023/03/02 11:12:54;;;;;;;;;41.33;35.00;;;;;11.82;36.02;101907.22;5015004;28;45408;-64
2023/03/02 11:15:20;;;;;;;;;42.33;32.00;;;;;11.39;36.49;101903.19;5014735;28;45588;-64
2023/03/02 11:17:52;;;;;;;;;37.00;33.00;;;;;11.18;37.03;101906.00;5014451;28;46576;-64
2023/03/02 11:20:30;;;;;;;;;39.67;28.67;;;;;10.96;37.14;101908.75;5021858;28;45265;-64